Terminal Aerodrome Forecast
Issued by NWS

Current Version | Previous Version | Text Only | Print | Product List | Glossary On
Versions: 1 2 3 4 5 6 7 8 9 10 11 12 13 14
000
FTUS46 KSEW 242300
TAFBLI
TAF
KBLI 242326Z 2500/2524 16010G18KT P6SM BKN040 BKN045
     FM250400 17005KT P6SM OVC050
     FM251300 16006KT P6SM OVC025
     FM251600 17007KT P6SM BKN050
     FM252100 17007KT P6SM SCT250=

USA.gov is the U.S. government's official web portal to all federal, state and local government web resources and services.